sensor_id;sensor_type;location;lat;lon;timestamp;temperature;humidity
73780;SHT30;62093;37.614;15.072;2022-12-10T00:01:12;18.34;64.02
73780;SHT30;62093;37.614;15.072;2022-12-10T00:03:39;18.36;64.01
73780;SHT30;62093;37.614;15.072;2022-12-10T00:06:09;18.36;63.98
73780;SHT30;62093;37.614;15.072;2022-12-10T00:08:36;18.34;63.94
73780;SHT30;62093;37.614;15.072;2022-12-10T00:11:04;18.34;63.91
73780;SHT30;62093;37.614;15.072;2022-12-10T00:13:30;18.36;63.92
73780;SHT30;62093;37.614;15.072;2022-12-10T00:15:59;18.34;63.85
73780;SHT30;62093;37.614;15.072;2022-12-10T00:18:25;18.34;63.90
73780;SHT30;62093;37.614;15.072;2022-12-10T00:20:51;18.40;63.83
73780;SHT30;62093;37.614;15.072;2022-12-10T00:23:17;18.34;63.94
73780;SHT30;62093;37.614;15.072;2022-12-10T00:25:43;18.33;63.90
73780;SHT30;62093;37.614;15.072;2022-12-10T00:28:09;18.36;63.82
73780;SHT30;62093;37.614;15.072;2022-12-10T00:30:35;18.34;63.91
73780;SHT30;62093;37.614;15.072;2022-12-10T00:33:01;18.33;63.97
73780;SHT30;62093;37.614;15.072;2022-12-10T00:35:27;18.36;63.97
73780;SHT30;62093;37.614;15.072;2022-12-10T00:37:54;18.33;63.87
73780;SHT30;62093;37.614;15.072;2022-12-10T00:40:21;18.37;63.83
73780;SHT30;62093;37.614;15.072;2022-12-10T00:42:47;18.34;63.77
73780;SHT30;62093;37.614;15.072;2022-12-10T00:45:13;18.32;63.95
73780;SHT30;62093;37.614;15.072;2022-12-10T00:47:39;18.38;63.80
73780;SHT30;62093;37.614;15.072;2022-12-10T00:50:05;18.32;63.86
73780;SHT30;62093;37.614;15.072;2022-12-10T00:52:31;18.32;63.91
73780;SHT30;62093;37.614;15.072;2022-12-10T00:54:57;18.37;63.81
73780;SHT30;62093;37.614;15.072;2022-12-10T00:57:23;18.33;63.89
73780;SHT30;62093;37.614;15.072;2022-12-10T00:59:49;18.32;63.93
73780;SHT30;62093;37.614;15.072;2022-12-10T01:02:14;18.32;63.91
73780;SHT30;62093;37.614;15.072;2022-12-10T01:04:40;18.33;63.89
73780;SHT30;62093;37.614;15.072;2022-12-10T01:07:07;18.36;63.82
73780;SHT30;62093;37.614;15.072;2022-12-10T01:09:34;18.33;63.87
73780;SHT30;62093;37.614;15.072;2022-12-10T01:12:01;18.29;63.91
73780;SHT30;62093;37.614;15.072;2022-12-10T01:14:30;18.30;63.82
73780;SHT30;62093;37.614;15.072;2022-12-10T01:16:58;18.33;63.72
73780;SHT30;62093;37.614;15.072;2022-12-10T01:19:24;18.33;63.69
73780;SHT30;62093;37.614;15.072;2022-12-10T01:21:51;18.33;63.74
73780;SHT30;62093;37.614;15.072;2022-12-10T01:24:19;18.32;63.75
73780;SHT30;62093;37.614;15.072;2022-12-10T01:26:45;18.33;63.84
73780;SHT30;62093;37.614;15.072;2022-12-10T01:29:11;18.34;63.73
73780;SHT30;62093;37.614;15.072;2022-12-10T01:31:39;18.36;63.74
73780;SHT30;62093;37.614;15.072;2022-12-10T01:34:07;18.33;63.75
73780;SHT30;62093;37.614;15.072;2022-12-10T01:36:35;18.33;63.83
73780;SHT30;62093;37.614;15.072;2022-12-10T01:39:04;18.29;63.97
73780;SHT30;62093;37.614;15.072;2022-12-10T01:41:37;18.27;63.99
73780;SHT30;62093;37.614;15.072;2022-12-10T01:46:38;18.30;63.95
73780;SHT30;62093;37.614;15.072;2022-12-10T01:49:07;18.33;63.89
73780;SHT30;62093;37.614;15.072;2022-12-10T01:51:36;18.32;63.87
73780;SHT30;62093;37.614;15.072;2022-12-10T01:54:04;18.27;64.00
73780;SHT30;62093;37.614;15.072;2022-12-10T01:56:34;18.27;64.04
73780;SHT30;62093;37.614;15.072;2022-12-10T01:59:02;18.29;64.04
73780;SHT30;62093;37.614;15.072;2022-12-10T02:01:35;18.26;64.06
73780;SHT30;62093;37.614;15.072;2022-12-10T02:10:00;18.24;64.10
73780;SHT30;62093;37.614;15.072;2022-12-10T02:12:43;18.27;64.14
73780;SHT30;62093;37.614;15.072;2022-12-10T02:15:15;18.27;64.20
73780;SHT30;62093;37.614;15.072;2022-12-10T02:17:50;18.27;64.14
73780;SHT30;62093;37.614;15.072;2022-12-10T02:20:24;18.26;64.19
73780;SHT30;62093;37.614;15.072;2022-12-10T02:23:11;18.23;64.19
73780;SHT30;62093;37.614;15.072;2022-12-10T02:25:43;18.27;64.19
73780;SHT30;62093;37.614;15.072;2022-12-10T02:31:07;18.24;64.30
73780;SHT30;62093;37.614;15.072;2022-12-10T02:33:39;18.26;64.23
73780;SHT30;62093;37.614;15.072;2022-12-10T02:36:07;18.27;64.31
73780;SHT30;62093;37.614;15.072;2022-12-10T02:38:37;18.26;64.36
73780;SHT30;62093;37.614;15.072;2022-12-10T02:41:08;18.23;64.37
73780;SHT30;62093;37.614;15.072;2022-12-10T02:43:37;18.24;64.48
73780;SHT30;62093;37.614;15.072;2022-12-10T02:46:04;18.22;64.46
73780;SHT30;62093;37.614;15.072;2022-12-10T02:48:32;18.23;64.40
73780;SHT30;62093;37.614;15.072;2022-12-10T02:50:59;18.23;64.43
73780;SHT30;62093;37.614;15.072;2022-12-10T02:53:26;18.24;64.40
73780;SHT30;62093;37.614;15.072;2022-12-10T03:02:11;18.22;64.61
73780;SHT30;62093;37.614;15.072;2022-12-10T03:05:01;18.20;64.51
73780;SHT30;62093;37.614;15.072;2022-12-10T03:07:32;18.24;64.49
73780;SHT30;62093;37.614;15.072;2022-12-10T03:10:24;18.20;64.50
73780;SHT30;62093;37.614;15.072;2022-12-10T03:12:58;18.24;64.48
73780;SHT30;62093;37.614;15.072;2022-12-10T03:15:27;18.22;64.54
73780;SHT30;62093;37.614;15.072;2022-12-10T03:17:54;18.23;64.57
73780;SHT30;62093;37.614;15.072;2022-12-10T03:20:22;18.24;64.50
73780;SHT30;62093;37.614;15.072;2022-12-10T03:22:49;18.22;64.49
73780;SHT30;62093;37.614;15.072;2022-12-10T03:25:19;18.22;64.53
73780;SHT30;62093;37.614;15.072;2022-12-10T03:27:48;18.23;64.49
73780;SHT30;62093;37.614;15.072;2022-12-10T03:30:15;18.24;64.53
73780;SHT30;62093;37.614;15.072;2022-12-10T03:32:41;18.24;64.44
73780;SHT30;62093;37.614;15.072;2022-12-10T03:35:09;18.20;64.50
73780;SHT30;62093;37.614;15.072;2022-12-10T03:37:36;18.22;64.51
73780;SHT30;62093;37.614;15.072;2022-12-10T03:40:04;18.24;64.49
73780;SHT30;62093;37.614;15.072;2022-12-10T03:42:31;18.23;64.51
73780;SHT30;62093;37.614;15.072;2022-12-10T03:44:57;18.20;64.54
73780;SHT30;62093;37.614;15.072;2022-12-10T03:47:23;18.24;64.47
73780;SHT30;62093;37.614;15.072;2022-12-10T03:49:49;18.20;64.58
73780;SHT30;62093;37.614;15.072;2022-12-10T03:52:15;18.20;64.60
73780;SHT30;62093;37.614;15.072;2022-12-10T03:54:41;18.22;64.61
73780;SHT30;62093;37.614;15.072;2022-12-10T03:57:07;18.23;64.62
73780;SHT30;62093;37.614;15.072;2022-12-10T03:59:33;18.20;64.62
73780;SHT30;62093;37.614;15.072;2022-12-10T04:01:59;18.22;64.57
73780;SHT30;62093;37.614;15.072;2022-12-10T04:04:24;18.22;64.60
73780;SHT30;62093;37.614;15.072;2022-12-10T04:06:50;18.20;64.48
73780;SHT30;62093;37.614;15.072;2022-12-10T04:09:16;18.26;64.51
73780;SHT30;62093;37.614;15.072;2022-12-10T04:11:43;18.18;64.68
73780;SHT30;62093;37.614;15.072;2022-12-10T04:14:10;18.17;64.69
73780;SHT30;62093;37.614;15.072;2022-12-10T04:16:55;18.26;64.56
73780;SHT30;62093;37.614;15.072;2022-12-10T04:19:21;18.20;64.65
73780;SHT30;62093;37.614;15.072;2022-12-10T04:21:47;18.17;64.62
73780;SHT30;62093;37.614;15.072;2022-12-10T04:24:34;18.20;64.55
73780;SHT30;62093;37.614;15.072;2022-12-10T04:27:28;18.18;64.57
73780;SHT30;62093;37.614;15.072;2022-12-10T04:29:55;18.23;64.54
73780;SHT30;62093;37.614;15.072;2022-12-10T04:32:22;18.24;64.47
73780;SHT30;62093;37.614;15.072;2022-12-10T04:34:48;18.17;64.56
73780;SHT30;62093;37.614;15.072;2022-12-10T04:37:15;18.20;64.50
73780;SHT30;62093;37.614;15.072;2022-12-10T04:39:41;18.20;64.48
73780;SHT30;62093;37.614;15.072;2022-12-10T04:42:07;18.22;64.49
73780;SHT30;62093;37.614;15.072;2022-12-10T04:44:33;18.18;64.51
73780;SHT30;62093;37.614;15.072;2022-12-10T04:46:59;18.20;64.48
73780;SHT30;62093;37.614;15.072;2022-12-10T04:49:25;18.22;64.47
73780;SHT30;62093;37.614;15.072;2022-12-10T04:51:52;18.20;64.38
73780;SHT30;62093;37.614;15.072;2022-12-10T04:54:19;18.26;64.32
73780;SHT30;62093;37.614;15.072;2022-12-10T04:56:45;18.22;64.38
73780;SHT30;62093;37.614;15.072;2022-12-10T04:59:12;18.27;64.24
73780;SHT30;62093;37.614;15.072;2022-12-10T05:01:38;18.23;64.35
73780;SHT30;62093;37.614;15.072;2022-12-10T05:04:06;18.26;64.27
73780;SHT30;62093;37.614;15.072;2022-12-10T05:06:33;18.24;64.31
73780;SHT30;62093;37.614;15.072;2022-12-10T05:08:59;18.17;64.44
73780;SHT30;62093;37.614;15.072;2022-12-10T05:11:27;18.22;64.42
73780;SHT30;62093;37.614;15.072;2022-12-10T05:13:54;18.26;64.22
73780;SHT30;62093;37.614;15.072;2022-12-10T05:16:22;18.32;64.17
73780;SHT30;62093;37.614;15.072;2022-12-10T05:18:49;18.27;64.26
73780;SHT30;62093;37.614;15.072;2022-12-10T05:21:16;18.26;64.30
73780;SHT30;62093;37.614;15.072;2022-12-10T05:23:44;18.24;64.36
73780;SHT30;62093;37.614;15.072;2022-12-10T05:26:19;18.26;64.41
73780;SHT30;62093;37.614;15.072;2022-12-10T05:28:47;18.27;64.20
73780;SHT30;62093;37.614;15.072;2022-12-10T05:33:46;18.29;64.28
73780;SHT30;62093;37.614;15.072;2022-12-10T05:36:14;18.32;64.21
73780;SHT30;62093;37.614;15.072;2022-12-10T05:38:41;18.32;64.23
73780;SHT30;62093;37.614;15.072;2022-12-10T05:41:10;18.32;64.26
73780;SHT30;62093;37.614;15.072;2022-12-10T05:43:37;18.32;64.23
73780;SHT30;62093;37.614;15.072;2022-12-10T05:46:09;18.29;64.29
73780;SHT30;62093;37.614;15.072;2022-12-10T05:48:35;18.30;64.36
73780;SHT30;62093;37.614;15.072;2022-12-10T05:51:08;18.30;64.37
73780;SHT30;62093;37.614;15.072;2022-12-10T05:53:35;18.34;64.39
73780;SHT30;62093;37.614;15.072;2022-12-10T05:56:03;18.33;64.43
73780;SHT30;62093;37.614;15.072;2022-12-10T05:58:29;18.36;64.36
73780;SHT30;62093;37.614;15.072;2022-12-10T06:00:56;18.33;64.44
73780;SHT30;62093;37.614;15.072;2022-12-10T06:03:22;18.34;64.51
73780;SHT30;62093;37.614;15.072;2022-12-10T06:05:48;18.33;64.58
73780;SHT30;62093;37.614;15.072;2022-12-10T06:08:14;18.36;64.48
73780;SHT30;62093;37.614;15.072;2022-12-10T06:10:40;18.34;64.46
73780;SHT30;62093;37.614;15.072;2022-12-10T06:13:06;18.34;64.49
73780;SHT30;62093;37.614;15.072;2022-12-10T06:15:32;18.34;64.46
73780;SHT30;62093;37.614;15.072;2022-12-10T06:17:58;18.41;64.36
73780;SHT30;62093;37.614;15.072;2022-12-10T06:20:25;18.34;64.46
73780;SHT30;62093;37.614;15.072;2022-12-10T06:22:51;18.36;64.48
73780;SHT30;62093;37.614;15.072;2022-12-10T06:25:18;18.37;64.46
73780;SHT30;62093;37.614;15.072;2022-12-10T06:27:44;18.38;64.33
73780;SHT30;62093;37.614;15.072;2022-12-10T06:30:10;18.38;64.33
73780;SHT30;62093;37.614;15.072;2022-12-10T06:32:36;18.33;64.45
73780;SHT30;62093;37.614;15.072;2022-12-10T06:35:03;18.36;64.38
73780;SHT30;62093;37.614;15.072;2022-12-10T06:37:29;18.43;64.28
73780;SHT30;62093;37.614;15.072;2022-12-10T06:39:55;18.38;64.29
73780;SHT30;62093;37.614;15.072;2022-12-10T06:42:21;18.37;64.34
73780;SHT30;62093;37.614;15.072;2022-12-10T06:44:47;18.36;64.36
73780;SHT30;62093;37.614;15.072;2022-12-10T06:47:13;18.36;64.39
73780;SHT30;62093;37.614;15.072;2022-12-10T06:49:40;18.37;64.37
73780;SHT30;62093;37.614;15.072;2022-12-10T06:52:06;18.38;64.18
73780;SHT30;62093;37.614;15.072;2022-12-10T06:54:32;18.41;64.19
73780;SHT30;62093;37.614;15.072;2022-12-10T06:56:58;18.36;64.35
73780;SHT30;62093;37.614;15.072;2022-12-10T06:59:24;18.36;64.40
73780;SHT30;62093;37.614;15.072;2022-12-10T07:01:50;18.33;64.41
73780;SHT30;62093;37.614;15.072;2022-12-10T07:04:16;18.40;64.25
73780;SHT30;62093;37.614;15.072;2022-12-10T07:06:42;18.40;64.29
73780;SHT30;62093;37.614;15.072;2022-12-10T07:09:09;18.40;64.21
73780;SHT30;62093;37.614;15.072;2022-12-10T07:11:37;18.40;64.26
73780;SHT30;62093;37.614;15.072;2022-12-10T07:14:03;18.30;64.40
73780;SHT30;62093;37.614;15.072;2022-12-10T07:16:31;18.36;64.38
73780;SHT30;62093;37.614;15.072;2022-12-10T07:18:59;18.34;64.36
73780;SHT30;62093;37.614;15.072;2022-12-10T07:21:34;18.38;64.30
73780;SHT30;62093;37.614;15.072;2022-12-10T07:24:02;18.34;64.39
73780;SHT30;62093;37.614;15.072;2022-12-10T07:26:30;18.36;64.37
73780;SHT30;62093;37.614;15.072;2022-12-10T07:28:58;18.36;64.35
73780;SHT30;62093;37.614;15.072;2022-12-10T07:31:24;18.34;64.36
73780;SHT30;62093;37.614;15.072;2022-12-10T07:33:51;18.36;64.34
73780;SHT30;62093;37.614;15.072;2022-12-10T07:36:18;18.38;64.30
73780;SHT30;62093;37.614;15.072;2022-12-10T07:38:44;18.36;64.38
73780;SHT30;62093;37.614;15.072;2022-12-10T07:41:11;18.37;64.39
73780;SHT30;62093;37.614;15.072;2022-12-10T07:43:40;18.40;64.23
73780;SHT30;62093;37.614;15.072;2022-12-10T07:46:09;18.34;64.35
73780;SHT30;62093;37.614;15.072;2022-12-10T07:48:37;18.32;64.48
73780;SHT30;62093;37.614;15.072;2022-12-10T07:51:03;18.34;64.46
73780;SHT30;62093;37.614;15.072;2022-12-10T07:53:29;18.38;64.41
73780;SHT30;62093;37.614;15.072;2022-12-10T07:55:55;18.37;64.38
73780;SHT30;62093;37.614;15.072;2022-12-10T07:58:21;18.36;64.43
73780;SHT30;62093;37.614;15.072;2022-12-10T08:00:46;18.41;64.38
73780;SHT30;62093;37.614;15.072;2022-12-10T08:03:12;18.36;64.51
73780;SHT30;62093;37.614;15.072;2022-12-10T08:05:38;18.36;64.52
73780;SHT30;62093;37.614;15.072;2022-12-10T08:08:04;18.37;64.49
73780;SHT30;62093;37.614;15.072;2022-12-10T08:10:33;18.40;64.41
73780;SHT30;62093;37.614;15.072;2022-12-10T08:12:59;18.37;64.52
73780;SHT30;62093;37.614;15.072;2022-12-10T08:15:25;18.34;64.50
73780;SHT30;62093;37.614;15.072;2022-12-10T08:17:54;18.37;64.43
73780;SHT30;62093;37.614;15.072;2022-12-10T08:20:21;18.40;64.45
73780;SHT30;62093;37.614;15.072;2022-12-10T08:22:46;18.38;64.35
73780;SHT30;62093;37.614;15.072;2022-12-10T08:25:12;18.37;64.47
73780;SHT30;62093;37.614;15.072;2022-12-10T08:27:38;18.38;64.43
73780;SHT30;62093;37.614;15.072;2022-12-10T08:30:05;18.45;64.31
73780;SHT30;62093;37.614;15.072;2022-12-10T08:32:31;18.45;64.29
73780;SHT30;62093;37.614;15.072;2022-12-10T08:34:56;18.44;64.32
73780;SHT30;62093;37.614;15.072;2022-12-10T08:37:22;18.45;64.40
73780;SHT30;62093;37.614;15.072;2022-12-10T08:39:48;18.47;64.29
73780;SHT30;62093;37.614;15.072;2022-12-10T08:42:14;18.47;64.45
73780;SHT30;62093;37.614;15.072;2022-12-10T08:44:40;18.54;64.41
73780;SHT30;62093;37.614;15.072;2022-12-10T08:47:07;18.51;64.52
73780;SHT30;62093;37.614;15.072;2022-12-10T08:49:33;18.51;64.77
73780;SHT30;62093;37.614;15.072;2022-12-10T08:51:59;18.57;64.79
73780;SHT30;62093;37.614;15.072;2022-12-10T08:54:25;18.55;64.66
73780;SHT30;62093;37.614;15.072;2022-12-10T08:56:51;18.58;64.19
73780;SHT30;62093;37.614;15.072;2022-12-10T08:59:16;18.53;64.51
73780;SHT30;62093;37.614;15.072;2022-12-10T09:01:42;18.55;64.48
73780;SHT30;62093;37.614;15.072;2022-12-10T09:04:08;18.53;64.51
73780;SHT30;62093;37.614;15.072;2022-12-10T09:06:35;18.58;64.32
73780;SHT30;62093;37.614;15.072;2022-12-10T09:09:01;18.50;64.45
73780;SHT30;62093;37.614;15.072;2022-12-10T09:11:31;18.57;64.31
73780;SHT30;62093;37.614;15.072;2022-12-10T09:13:58;18.55;64.30
73780;SHT30;62093;37.614;15.072;2022-12-10T09:16:33;18.51;64.41
73780;SHT30;62093;37.614;15.072;2022-12-10T09:18:59;18.54;64.42
73780;SHT30;62093;37.614;15.072;2022-12-10T09:21:25;18.53;64.43
73780;SHT30;62093;37.614;15.072;2022-12-10T09:23:51;18.53;64.42
73780;SHT30;62093;37.614;15.072;2022-12-10T09:26:18;18.51;64.49
73780;SHT30;62093;37.614;15.072;2022-12-10T09:28:45;18.51;64.55
73780;SHT30;62093;37.614;15.072;2022-12-10T09:31:13;18.51;64.44
73780;SHT30;62093;37.614;15.072;2022-12-10T09:33:39;18.50;64.45
73780;SHT30;62093;37.614;15.072;2022-12-10T09:36:06;18.53;64.52
73780;SHT30;62093;37.614;15.072;2022-12-10T09:38:38;18.51;64.49
73780;SHT30;62093;37.614;15.072;2022-12-10T09:44:03;18.50;64.50
73780;SHT30;62093;37.614;15.072;2022-12-10T09:46:48;18.53;64.48
73780;SHT30;62093;37.614;15.072;2022-12-10T09:52:41;18.54;64.46
73780;SHT30;62093;37.614;15.072;2022-12-10T09:55:14;18.54;64.46
73780;SHT30;62093;37.614;15.072;2022-12-10T09:57:46;18.55;64.44
73780;SHT30;62093;37.614;15.072;2022-12-10T10:00:23;18.55;64.44
73780;SHT30;62093;37.614;15.072;2022-12-10T10:02:51;18.51;64.57
73780;SHT30;62093;37.614;15.072;2022-12-10T10:05:26;18.51;64.65
73780;SHT30;62093;37.614;15.072;2022-12-10T10:07:55;18.51;64.61
73780;SHT30;62093;37.614;15.072;2022-12-10T10:13:00;18.51;64.50
73780;SHT30;62093;37.614;15.072;2022-12-10T10:15:36;18.55;64.49
73780;SHT30;62093;37.614;15.072;2022-12-10T10:20:41;18.53;64.44
73780;SHT30;62093;37.614;15.072;2022-12-10T10:23:08;18.54;64.40
73780;SHT30;62093;37.614;15.072;2022-12-10T10:25:35;18.57;64.37
73780;SHT30;62093;37.614;15.072;2022-12-10T10:28:01;18.53;64.47
73780;SHT30;62093;37.614;15.072;2022-12-10T10:30:27;18.54;64.31
73780;SHT30;62093;37.614;15.072;2022-12-10T10:32:55;18.55;64.31
73780;SHT30;62093;37.614;15.072;2022-12-10T10:35:28;18.55;64.29
73780;SHT30;62093;37.614;15.072;2022-12-10T10:38:00;18.58;64.28
73780;SHT30;62093;37.614;15.072;2022-12-10T10:40:33;18.54;64.34
73780;SHT30;62093;37.614;15.072;2022-12-10T10:43:04;18.54;64.39
73780;SHT30;62093;37.614;15.072;2022-12-10T10:45:39;18.54;64.39
73780;SHT30;62093;37.614;15.072;2022-12-10T10:48:16;18.53;64.37
73780;SHT30;62093;37.614;15.072;2022-12-10T10:50:46;18.54;64.39
73780;SHT30;62093;37.614;15.072;2022-12-10T10:55:49;18.54;64.37
73780;SHT30;62093;37.614;15.072;2022-12-10T10:58:22;18.53;64.43
73780;SHT30;62093;37.614;15.072;2022-12-10T11:01:06;18.54;64.40
73780;SHT30;62093;37.614;15.072;2022-12-10T11:03:34;18.55;64.39
73780;SHT30;62093;37.614;15.072;2022-12-10T11:06:05;18.54;64.42
73780;SHT30;62093;37.614;15.072;2022-12-10T11:08:32;18.57;64.30
73780;SHT30;62093;37.614;15.072;2022-12-10T11:11:02;18.55;64.34
73780;SHT30;62093;37.614;15.072;2022-12-10T11:13:34;18.55;64.37
73780;SHT30;62093;37.614;15.072;2022-12-10T11:16:22;18.57;64.33
73780;SHT30;62093;37.614;15.072;2022-12-10T11:19:21;18.57;64.22
73780;SHT30;62093;37.614;15.072;2022-12-10T11:21:47;18.60;64.21
73780;SHT30;62093;37.614;15.072;2022-12-10T11:24:17;18.58;64.33
73780;SHT30;62093;37.614;15.072;2022-12-10T11:27:06;18.57;64.26
73780;SHT30;62093;37.614;15.072;2022-12-10T11:37:52;18.60;64.25
73780;SHT30;62093;37.614;15.072;2022-12-10T11:41:12;18.61;64.20
73780;SHT30;62093;37.614;15.072;2022-12-10T11:57:44;18.58;64.32
73780;SHT30;62093;37.614;15.072;2022-12-10T12:00:20;18.61;64.37
73780;SHT30;62093;37.614;15.072;2022-12-10T12:03:06;18.57;64.30
73780;SHT30;62093;37.614;15.072;2022-12-10T12:14:40;18.60;64.43
73780;SHT30;62093;37.614;15.072;2022-12-10T12:19:47;18.54;64.68
73780;SHT30;62093;37.614;15.072;2022-12-10T12:22:23;18.55;64.36
73780;SHT30;62093;37.614;15.072;2022-12-10T12:24:53;18.55;64.67
73780;SHT30;62093;37.614;15.072;2022-12-10T12:30:03;18.54;64.52
73780;SHT30;62093;37.614;15.072;2022-12-10T12:32:51;18.54;64.49
73780;SHT30;62093;37.614;15.072;2022-12-10T12:35:47;18.54;64.46
73780;SHT30;62093;37.614;15.072;2022-12-10T12:38:52;18.51;64.81
73780;SHT30;62093;37.614;15.072;2022-12-10T12:41:41;18.54;64.67
73780;SHT30;62093;37.614;15.072;2022-12-10T12:49:48;18.50;64.70
73780;SHT30;62093;37.614;15.072;2022-12-10T12:54:44;18.48;64.95
73780;SHT30;62093;37.614;15.072;2022-12-10T13:00:14;18.50;64.87
73780;SHT30;62093;37.614;15.072;2022-12-10T13:05:41;18.47;64.93
73780;SHT30;62093;37.614;15.072;2022-12-10T13:19:24;18.43;65.15
73780;SHT30;62093;37.614;15.072;2022-12-10T13:42:36;18.41;65.26
73780;SHT30;62093;37.614;15.072;2022-12-10T13:47:55;18.43;65.21
73780;SHT30;62093;37.614;15.072;2022-12-10T13:50:58;18.43;65.28
73780;SHT30;62093;37.614;15.072;2022-12-10T13:53:55;18.43;65.37
73780;SHT30;62093;37.614;15.072;2022-12-10T14:01:45;18.41;65.46
73780;SHT30;62093;37.614;15.072;2022-12-10T14:07:16;18.40;65.49
73780;SHT30;62093;37.614;15.072;2022-12-10T14:09:55;18.37;65.49
73780;SHT30;62093;37.614;15.072;2022-12-10T14:12:47;18.40;65.60
73780;SHT30;62093;37.614;15.072;2022-12-10T14:15:20;18.36;65.70
73780;SHT30;62093;37.614;15.072;2022-12-10T14:17:49;18.38;65.64
73780;SHT30;62093;37.614;15.072;2022-12-10T14:20:22;18.41;65.57
73780;SHT30;62093;37.614;15.072;2022-12-10T14:22:50;18.36;65.88
73780;SHT30;62093;37.614;15.072;2022-12-10T14:25:21;18.33;65.52
73780;SHT30;62093;37.614;15.072;2022-12-10T14:27:49;18.37;65.38
73780;SHT30;62093;37.614;15.072;2022-12-10T14:30:24;18.37;65.61
73780;SHT30;62093;37.614;15.072;2022-12-10T14:32:54;18.38;65.51
73780;SHT30;62093;37.614;15.072;2022-12-10T14:35:26;18.36;65.49
73780;SHT30;62093;37.614;15.072;2022-12-10T14:37:56;18.37;65.52
73780;SHT30;62093;37.614;15.072;2022-12-10T14:40:41;18.36;66.23
73780;SHT30;62093;37.614;15.072;2022-12-10T14:43:19;17.48;67.99
73780;SHT30;62093;37.614;15.072;2022-12-10T14:45:59;17.01;69.86
73780;SHT30;62093;37.614;15.072;2022-12-10T14:48:26;16.76;70.57
73780;SHT30;62093;37.614;15.072;2022-12-10T14:50:52;16.80;70.28
73780;SHT30;62093;37.614;15.072;2022-12-10T14:53:23;16.83;70.64
73780;SHT30;62093;37.614;15.072;2022-12-10T14:55:53;16.69;71.83
73780;SHT30;62093;37.614;15.072;2022-12-10T14:58:40;16.56;71.15
73780;SHT30;62093;37.614;15.072;2022-12-10T15:01:27;16.63;70.46
73780;SHT30;62093;37.614;15.072;2022-12-10T15:03:54;16.69;70.30
73780;SHT30;62093;37.614;15.072;2022-12-10T15:06:21;16.41;70.90
73780;SHT30;62093;37.614;15.072;2022-12-10T15:08:48;16.46;70.73
73780;SHT30;62093;37.614;15.072;2022-12-10T15:11:17;16.52;69.67
73780;SHT30;62093;37.614;15.072;2022-12-10T15:13:49;16.63;69.77
73780;SHT30;62093;37.614;15.072;2022-12-10T15:16:30;16.59;68.45
73780;SHT30;62093;37.614;15.072;2022-12-10T15:22:01;16.69;67.81
73780;SHT30;62093;37.614;15.072;2022-12-10T15:24:32;16.49;67.92
73780;SHT30;62093;37.614;15.072;2022-12-10T15:27:00;16.55;66.44
73780;SHT30;62093;37.614;15.072;2022-12-10T15:34:42;16.32;67.44
73780;SHT30;62093;37.614;15.072;2022-12-10T15:37:22;16.32;66.48
73780;SHT30;62093;37.614;15.072;2022-12-10T15:39:57;16.94;69.39
73780;SHT30;62093;37.614;15.072;2022-12-10T15:45:15;17.82;66.87
73780;SHT30;62093;37.614;15.072;2022-12-10T15:47:41;17.89;66.50
73780;SHT30;62093;37.614;15.072;2022-12-10T15:50:08;17.95;65.98
73780;SHT30;62093;37.614;15.072;2022-12-10T15:52:34;17.95;65.91
73780;SHT30;62093;37.614;15.072;2022-12-10T15:55:01;18.02;65.95
73780;SHT30;62093;37.614;15.072;2022-12-10T15:57:32;17.99;66.08
73780;SHT30;62093;37.614;15.072;2022-12-10T16:00:00;17.97;66.05
73780;SHT30;62093;37.614;15.072;2022-12-10T16:05:22;18.00;66.02
73780;SHT30;62093;37.614;15.072;2022-12-10T16:07:50;17.99;66.04
73780;SHT30;62093;37.614;15.072;2022-12-10T16:10:19;18.00;66.19
73780;SHT30;62093;37.614;15.072;2022-12-10T16:12:48;18.02;66.35
73780;SHT30;62093;37.614;15.072;2022-12-10T16:15:23;18.03;66.25
73780;SHT30;62093;37.614;15.072;2022-12-10T16:17:53;18.03;66.04
73780;SHT30;62093;37.614;15.072;2022-12-10T16:22:49;17.99;66.28
73780;SHT30;62093;37.614;15.072;2022-12-10T16:25:15;18.03;66.39
73780;SHT30;62093;37.614;15.072;2022-12-10T16:27:42;18.03;66.18
73780;SHT30;62093;37.614;15.072;2022-12-10T16:30:20;18.03;66.02
73780;SHT30;62093;37.614;15.072;2022-12-10T16:32:47;18.10;65.54
73780;SHT30;62093;37.614;15.072;2022-12-10T16:35:13;18.13;66.35
73780;SHT30;62093;37.614;15.072;2022-12-10T16:37:41;18.12;66.31
73780;SHT30;62093;37.614;15.072;2022-12-10T16:40:09;18.07;66.23
73780;SHT30;62093;37.614;15.072;2022-12-10T16:42:35;18.10;66.27
73780;SHT30;62093;37.614;15.072;2022-12-10T16:45:01;18.09;66.30
73780;SHT30;62093;37.614;15.072;2022-12-10T16:47:27;18.07;66.07
73780;SHT30;62093;37.614;15.072;2022-12-10T16:49:53;18.03;66.39
73780;SHT30;62093;37.614;15.072;2022-12-10T16:52:19;18.04;66.29
73780;SHT30;62093;37.614;15.072;2022-12-10T16:54:45;18.02;66.47
73780;SHT30;62093;37.614;15.072;2022-12-10T16:57:12;18.06;66.32
73780;SHT30;62093;37.614;15.072;2022-12-10T16:59:38;18.00;66.51
73780;SHT30;62093;37.614;15.072;2022-12-10T17:02:16;18.00;66.56
73780;SHT30;62093;37.614;15.072;2022-12-10T17:04:43;18.03;66.22
73780;SHT30;62093;37.614;15.072;2022-12-10T17:07:13;18.06;66.38
73780;SHT30;62093;37.614;15.072;2022-12-10T17:09:40;17.99;66.48
73780;SHT30;62093;37.614;15.072;2022-12-10T17:12:06;18.00;66.51
73780;SHT30;62093;37.614;15.072;2022-12-10T17:14:36;18.00;66.52
73780;SHT30;62093;37.614;15.072;2022-12-10T17:17:03;18.03;66.58
73780;SHT30;62093;37.614;15.072;2022-12-10T17:19:36;17.99;66.49
73780;SHT30;62093;37.614;15.072;2022-12-10T17:22:03;18.02;66.49
73780;SHT30;62093;37.614;15.072;2022-12-10T17:24:29;18.00;66.60
73780;SHT30;62093;37.614;15.072;2022-12-10T17:27:06;17.95;66.63
73780;SHT30;62093;37.614;15.072;2022-12-10T17:29:38;18.02;66.46
73780;SHT30;62093;37.614;15.072;2022-12-10T17:32:05;17.93;66.74
73780;SHT30;62093;37.614;15.072;2022-12-10T17:34:32;17.96;66.63
73780;SHT30;62093;37.614;15.072;2022-12-10T17:36:58;18.00;66.56
73780;SHT30;62093;37.614;15.072;2022-12-10T17:39:24;17.92;66.80
73780;SHT30;62093;37.614;15.072;2022-12-10T17:41:54;17.95;66.58
73780;SHT30;62093;37.614;15.072;2022-12-10T17:44:20;17.93;66.74
73780;SHT30;62093;37.614;15.072;2022-12-10T17:46:47;17.97;66.65
73780;SHT30;62093;37.614;15.072;2022-12-10T17:49:14;17.97;66.65
73780;SHT30;62093;37.614;15.072;2022-12-10T17:51:41;17.96;66.56
73780;SHT30;62093;37.614;15.072;2022-12-10T17:54:07;17.99;66.57